createdAt,value
2018-06-11T00:01:44.557Z,52.90
2018-06-11T00:04:13.869Z,50.10
2018-06-11T00:06:43.398Z,50.40
2018-06-11T00:09:12.880Z,51.90
2018-06-11T00:11:43.426Z,51.60
2018-06-11T00:14:13.613Z,48.80
2018-06-11T00:16:43.403Z,48.80
2018-06-11T00:19:13.215Z,48.20
2018-06-11T00:21:43.691Z,46.90
2018-06-11T00:24:13.115Z,46.90
2018-06-11T00:26:42.513Z,47.90
2018-06-11T00:29:11.930Z,49.10
2018-06-11T00:31:42.548Z,49.90
2018-06-11T00:34:12.714Z,50.00
2018-06-11T00:36:43.955Z,49.60
2018-06-11T00:39:13.660Z,50.30
2018-06-11T00:41:43.292Z,49.70
2018-06-11T00:44:13.063Z,49.50
2018-06-11T00:46:43.216Z,49.50
2018-06-11T00:49:13.390Z,49.50
2018-06-11T00:51:42.902Z,50.10
2018-06-11T00:54:12.666Z,51.00
2018-06-11T00:56:42.919Z,51.00
2018-06-11T00:59:12.466Z,51.20
2018-06-11T01:01:42.656Z,53.00
2018-06-11T01:04:12.252Z,52.90
2018-06-11T01:06:41.745Z,52.60
2018-06-11T01:09:11.141Z,52.00
2018-06-11T01:11:40.428Z,51.50
2018-06-11T01:14:10.240Z,52.80
2018-06-11T01:16:39.732Z,55.10
2018-06-11T01:19:10.667Z,55.50
2018-06-11T01:21:40.370Z,56.10
2018-06-11T01:24:11.643Z,54.60
2018-06-11T01:26:41.730Z,55.10
2018-06-11T01:29:12.642Z,55.00
2018-06-11T01:31:42.107Z,55.00
2018-06-11T01:34:11.992Z,55.90
2018-06-11T01:36:43.030Z,56.70
2018-06-11T01:39:13.545Z,58.60
2018-06-11T01:41:44.049Z,56.50
2018-06-11T01:44:13.557Z,56.50
2018-06-11T01:46:43.141Z,56.10
2018-06-11T01:49:12.675Z,57.00
2018-06-11T01:51:42.240Z,57.20
2018-06-11T01:54:12.083Z,57.50
2018-06-11T01:56:41.920Z,56.20
2018-06-11T01:59:11.564Z,57.30
2018-06-11T02:01:42.604Z,57.20
2018-06-11T02:04:12.732Z,58.20
2018-06-11T02:06:42.650Z,58.90
2018-06-11T02:09:12.707Z,59.30
2018-06-11T02:11:42.995Z,58.30
2018-06-11T02:14:12.599Z,59.10
2018-06-11T02:16:42.128Z,59.90
2018-06-11T02:19:11.948Z,59.40
2018-06-11T02:21:41.532Z,60.40
2018-06-11T02:24:11.487Z,57.70
2018-06-11T02:26:40.939Z,58.00
2018-06-11T02:29:10.857Z,57.70
2018-06-11T02:31:40.391Z,57.40
2018-06-11T02:34:10.419Z,59.10
2018-06-11T02:36:39.763Z,58.40
2018-06-11T02:39:09.791Z,59.00
2018-06-11T02:41:40.540Z,59.10
2018-06-11T02:44:10.926Z,59.90
2018-06-11T02:46:42.015Z,59.10
2018-06-11T02:49:13.345Z,59.60
2018-06-11T02:51:43.895Z,59.60
2018-06-11T02:54:14.356Z,59.50
2018-06-11T02:56:43.939Z,59.70
2018-06-11T02:59:13.461Z,59.80
2018-06-11T03:01:43.373Z,60.60
2018-06-11T03:04:12.293Z,61.50
2018-06-11T03:06:43.327Z,62.00
2018-06-11T03:09:14.689Z,62.30
2018-06-11T03:11:44.471Z,61.80
2018-06-11T03:14:13.867Z,61.90
2018-06-11T03:16:43.576Z,60.90
2018-06-11T03:19:13.013Z,60.90
2018-06-11T03:21:43.636Z,59.60
2018-06-11T03:24:13.168Z,60.70
2018-06-11T03:26:43.431Z,61.50
2018-06-11T03:29:14.628Z,60.90
2018-06-11T03:31:44.506Z,61.40
2018-06-11T03:34:14.069Z,60.70
2018-06-11T03:36:43.735Z,61.10
2018-06-11T03:39:13.447Z,61.40
2018-06-11T03:41:43.810Z,62.50
2018-06-11T03:44:13.624Z,62.50
2018-06-11T03:46:43.128Z,63.30
2018-06-11T03:49:13.650Z,63.40
2018-06-11T03:51:43.554Z,64.40
2018-06-11T03:54:13.059Z,65.10
2018-06-11T03:56:42.828Z,65.20
2018-06-11T03:59:12.893Z,65.50
2018-06-11T04:01:42.370Z,65.40
2018-06-11T04:04:13.583Z,65.80
2018-06-11T04:06:43.784Z,65.80
2018-06-11T04:09:13.171Z,66.20
2018-06-11T04:11:42.437Z,66.10
2018-06-11T04:14:12.681Z,66.50
2018-06-11T04:16:42.416Z,66.70
2018-06-11T04:19:12.621Z,66.50
2018-06-11T04:21:43.326Z,66.70
2018-06-11T04:24:13.595Z,67.20
2018-06-11T04:26:42.956Z,67.10
2018-06-11T04:29:12.609Z,67.50
2018-06-11T04:31:43.843Z,68.20
2018-06-11T04:34:13.399Z,68.30
2018-06-11T04:36:43.010Z,69.10
2018-06-11T04:39:14.072Z,70.10
2018-06-11T04:41:43.677Z,70.00
2018-06-11T04:44:15.970Z,70.20
2018-06-11T04:46:46.026Z,69.90
2018-06-11T04:49:17.081Z,70.20
2018-06-11T04:51:46.772Z,70.30
2018-06-11T04:54:17.462Z,70.50
2018-06-11T04:56:48.220Z,71.80
2018-06-11T04:59:19.952Z,72.00
2018-06-11T05:01:49.695Z,72.70
2018-06-11T05:04:19.471Z,72.90
2018-06-11T05:06:50.302Z,72.70
2018-06-11T05:09:20.421Z,72.90
2018-06-11T05:11:50.053Z,72.80
2018-06-11T05:14:19.877Z,72.50
2018-06-11T05:16:49.502Z,72.90
2018-06-11T05:19:19.771Z,72.90
2018-06-11T05:21:49.449Z,73.00
2018-06-11T05:24:20.447Z,72.90
2018-06-11T05:26:49.890Z,73.00
2018-06-11T05:29:19.309Z,73.70
2018-06-11T05:31:49.557Z,74.60
2018-06-11T05:34:19.185Z,74.70
2018-06-11T05:36:48.615Z,74.70
2018-06-11T05:39:19.943Z,74.60
2018-06-11T05:41:49.667Z,74.60
2018-06-11T05:44:19.286Z,74.80
2018-06-11T05:46:48.720Z,74.90
2018-06-11T05:49:18.506Z,75.20
2018-06-11T05:51:48.863Z,75.60
2018-06-11T05:54:18.434Z,75.60
2018-06-11T05:56:47.757Z,75.70
2018-06-11T05:59:17.747Z,76.10
2018-06-11T06:01:48.255Z,76.50
2018-06-11T06:04:18.483Z,76.80
2018-06-11T06:06:48.042Z,77.00
2018-06-11T06:09:17.662Z,77.30
2018-06-11T06:11:47.000Z,77.50
2018-06-11T06:14:17.189Z,77.90
2018-06-11T06:16:46.835Z,78.10
2018-06-11T06:19:16.113Z,78.60
2018-06-11T06:21:45.835Z,78.90
2018-06-11T06:24:15.333Z,78.80
2018-06-11T06:26:45.131Z,79.20
2018-06-11T06:29:17.102Z,79.40
2018-06-11T06:31:46.587Z,79.20
2018-06-11T06:34:15.980Z,79.70
2018-06-11T06:36:45.893Z,80.00
2018-06-11T06:39:15.839Z,80.00
2018-06-11T06:41:45.214Z,80.10
2018-06-11T06:44:15.436Z,80.10
2018-06-11T06:46:45.457Z,80.40
2018-06-11T06:49:15.157Z,80.40
2018-06-11T06:51:44.880Z,79.90
2018-06-11T06:54:14.926Z,79.90
2018-06-11T06:56:44.166Z,79.80
2018-06-11T06:59:14.223Z,80.00
2018-06-11T07:01:43.811Z,79.60
2018-06-11T07:04:13.154Z,80.00
2018-06-11T07:06:42.738Z,80.20
2018-06-11T07:09:12.131Z,79.60
2018-06-11T07:11:42.942Z,80.20
2018-06-11T07:14:12.308Z,80.20
2018-06-11T07:16:41.695Z,80.10
2018-06-11T07:19:11.251Z,80.20
2018-06-11T07:21:40.713Z,80.30
2018-06-11T07:24:10.204Z,80.30
2018-06-11T07:26:39.744Z,80.40
2018-06-11T07:29:09.063Z,80.40
2018-06-11T07:31:38.927Z,80.70
2018-06-11T07:34:09.778Z,80.60
2018-06-11T07:36:39.111Z,80.30
2018-06-11T07:39:08.456Z,80.10
2018-06-11T07:41:38.652Z,80.50
2018-06-11T07:44:08.870Z,80.70
2018-06-11T07:46:39.023Z,80.60
2018-06-11T07:49:08.380Z,80.70
2018-06-11T07:51:37.513Z,80.60
2018-06-11T07:54:08.426Z,80.90
2018-06-11T07:56:39.911Z,81.10
2018-06-11T07:59:10.071Z,81.60
2018-06-11T08:01:39.715Z,80.80
2018-06-11T08:04:09.844Z,81.20
2018-06-11T08:06:39.733Z,81.10
2018-06-11T08:09:09.182Z,80.60
2018-06-11T08:11:38.643Z,81.00
2018-06-11T08:14:09.331Z,80.90
2018-06-11T08:16:38.621Z,81.00
2018-06-11T08:19:07.977Z,80.90
2018-06-11T08:21:38.014Z,81.10
2018-06-11T08:24:09.667Z,81.30
2018-06-11T08:26:39.843Z,81.10
2018-06-11T08:29:09.076Z,81.00
2018-06-11T08:31:38.983Z,81.30
2018-06-11T08:34:09.262Z,80.80
2018-06-11T08:36:38.658Z,80.90
2018-06-11T08:39:07.993Z,81.40
2018-06-11T08:41:37.291Z,81.50
2018-06-11T08:44:06.813Z,81.90
2018-06-11T08:46:36.167Z,81.80
2018-06-11T08:49:05.647Z,81.50
2018-06-11T08:51:35.914Z,81.80
2018-06-11T08:54:06.215Z,81.70
2018-06-11T08:56:35.730Z,81.70
2018-06-11T08:59:05.794Z,81.90
2018-06-11T09:01:35.191Z,81.90
2018-06-11T09:04:04.609Z,82.00
2018-06-11T09:06:34.043Z,82.00
2018-06-11T09:09:02.999Z,81.80
2018-06-11T09:11:33.495Z,82.10
2018-06-11T09:14:03.946Z,82.50
2018-06-11T09:16:33.658Z,82.70
2018-06-11T09:19:02.820Z,82.80
2018-06-11T09:21:32.134Z,82.60
2018-06-11T09:24:01.445Z,82.90
2018-06-11T09:26:30.843Z,83.00
2018-06-11T09:29:00.207Z,82.90
2018-06-11T09:31:29.721Z,82.70
2018-06-11T09:33:59.186Z,82.60
2018-06-11T09:36:29.031Z,82.30
2018-06-11T09:38:58.491Z,82.20
2018-06-11T09:41:27.769Z,82.60
2018-06-11T09:43:57.251Z,82.50
2018-06-11T09:46:27.442Z,82.70
2018-06-11T09:48:57.431Z,82.90
2018-06-11T09:51:27.070Z,82.80
2018-06-11T09:53:56.752Z,83.20
2018-06-11T09:56:26.325Z,83.10
2018-06-11T09:58:55.643Z,83.20
2018-06-11T10:01:25.084Z,83.50
2018-06-11T10:03:54.580Z,83.30
2018-06-11T10:06:24.216Z,83.60
2018-06-11T10:08:53.649Z,83.20
2018-06-11T10:11:23.586Z,84.20
2018-06-11T10:13:52.988Z,83.50
2018-06-11T10:16:23.016Z,83.70
2018-06-11T10:18:52.748Z,83.80
2018-06-11T10:21:24.137Z,84.00
2018-06-11T10:23:54.826Z,84.00
2018-06-11T10:26:24.464Z,83.50
2018-06-11T10:28:54.982Z,83.80
2018-06-11T10:31:24.617Z,84.10
2018-06-11T10:33:53.915Z,83.70
2018-06-11T10:36:24.041Z,83.90
2018-06-11T10:38:53.785Z,83.20
2018-06-11T10:41:23.305Z,83.50
2018-06-11T10:43:52.597Z,83.50
2018-06-11T10:46:24.104Z,83.50
2018-06-11T10:48:53.395Z,84.30
2018-06-11T10:51:23.141Z,83.80
2018-06-11T10:53:53.400Z,83.60
2018-06-11T10:56:23.651Z,83.60
2018-06-11T10:58:52.891Z,83.50
2018-06-11T11:01:22.274Z,83.60
2018-06-11T11:03:52.106Z,83.80
2018-06-11T11:06:21.596Z,83.90
2018-06-11T11:08:50.800Z,83.90
2018-06-11T11:11:20.452Z,83.80
2018-06-11T11:13:50.097Z,83.70
2018-06-11T11:16:21.429Z,83.70
2018-06-11T11:18:50.715Z,83.60
2018-06-11T11:21:20.970Z,83.50
2018-06-11T11:23:50.547Z,83.50
2018-06-11T11:26:20.105Z,83.60
2018-06-11T11:28:49.489Z,83.40
2018-06-11T11:31:18.925Z,84.50
2018-06-11T11:33:48.636Z,83.70
2018-06-11T11:36:17.717Z,83.40
2018-06-11T11:38:46.938Z,83.60
2018-06-11T11:41:17.247Z,83.50
2018-06-11T11:43:46.675Z,83.50
2018-06-11T11:46:15.975Z,83.50
2018-06-11T11:48:45.478Z,83.30
2018-06-11T11:51:16.858Z,83.40
2018-06-11T11:53:46.112Z,83.40
2018-06-11T11:56:16.391Z,83.90
2018-06-11T11:58:47.618Z,84.00
2018-06-11T12:01:17.227Z,84.00
2018-06-11T12:03:47.184Z,83.60
2018-06-11T12:06:16.481Z,83.30
2018-06-11T12:08:45.948Z,83.20
2018-06-11T12:11:16.516Z,83.50
2018-06-11T12:13:46.456Z,83.40
2018-06-11T12:16:16.168Z,83.70
2018-06-11T12:18:45.702Z,84.00
2018-06-11T12:21:15.797Z,84.00
2018-06-11T12:23:46.026Z,84.10
2018-06-11T12:26:16.124Z,84.00
2018-06-11T12:28:46.086Z,83.90
2018-06-11T12:31:15.197Z,84.50
2018-06-11T12:33:44.874Z,84.20
2018-06-11T12:36:14.503Z,84.30
2018-06-11T12:38:44.242Z,84.40
2018-06-11T12:41:13.442Z,84.60
2018-06-11T12:43:43.011Z,84.50
2018-06-11T12:46:12.360Z,84.50
2018-06-11T12:48:41.615Z,84.20
2018-06-11T12:51:11.192Z,84.40
2018-06-11T12:53:40.637Z,84.00
2018-06-11T12:56:10.398Z,84.00
2018-06-11T12:58:40.807Z,84.50
2018-06-11T13:01:10.715Z,84.50
2018-06-11T13:03:40.061Z,84.60
2018-06-11T13:06:10.391Z,84.80
2018-06-11T13:08:39.878Z,84.80
2018-06-11T13:11:10.508Z,84.80
2018-06-11T13:13:40.069Z,84.80
2018-06-11T13:16:09.242Z,85.00
2018-06-11T13:18:38.815Z,85.00
2018-06-11T13:21:09.173Z,85.10
2018-06-11T13:23:38.416Z,85.20
2018-06-11T13:26:08.403Z,85.20
2018-06-11T13:28:37.836Z,85.10
2018-06-11T13:31:07.389Z,85.10
2018-06-11T13:33:36.666Z,85.10
2018-06-11T13:36:06.233Z,84.90
2018-06-11T13:38:35.592Z,84.70
2018-06-11T13:41:05.283Z,84.10
2018-06-11T13:43:34.965Z,84.00
2018-06-11T13:46:04.363Z,83.80
2018-06-11T13:48:33.478Z,84.00
2018-06-11T13:51:02.935Z,84.00
2018-06-11T13:53:32.259Z,83.20
2018-06-11T13:56:01.846Z,83.00
2018-06-11T13:58:32.181Z,82.70
2018-06-11T14:01:01.461Z,82.70
2018-06-11T14:03:30.973Z,81.80
2018-06-11T14:06:00.865Z,81.20
2018-06-11T14:08:31.727Z,80.50
2018-06-11T14:11:03.026Z,80.40
2018-06-11T14:13:33.748Z,79.10
2018-06-11T14:16:03.262Z,79.30
2018-06-11T14:18:32.707Z,79.40
2018-06-11T14:21:02.268Z,80.90
2018-06-11T14:23:32.437Z,80.70
2018-06-11T14:26:03.251Z,80.70
2018-06-11T14:28:34.163Z,79.20
2018-06-11T14:31:04.516Z,79.10
2018-06-11T14:33:33.958Z,78.80
2018-06-11T14:36:02.919Z,77.60
2018-06-11T14:38:32.701Z,77.10
2018-06-11T14:41:02.504Z,76.50
2018-06-11T14:43:31.276Z,77.10
2018-06-11T14:46:00.908Z,76.70
2018-06-11T14:48:30.604Z,75.90
2018-06-11T14:51:00.211Z,76.30
2018-06-11T14:53:29.446Z,76.70
2018-06-11T14:55:59.194Z,76.30
2018-06-11T14:58:29.832Z,76.40
2018-06-11T15:00:59.914Z,76.40
2018-06-11T15:03:29.374Z,76.10
2018-06-11T15:05:59.015Z,76.30
2018-06-11T15:08:28.412Z,76.40
2018-06-11T15:10:59.782Z,75.70
2018-06-11T15:13:30.069Z,75.70
2018-06-11T15:15:59.490Z,75.50
2018-06-11T15:18:28.636Z,75.30
2018-06-11T15:20:57.905Z,75.40
2018-06-11T15:23:27.460Z,75.10
2018-06-11T15:25:58.374Z,74.60
2018-06-11T15:28:27.944Z,74.90
2018-06-11T15:30:57.376Z,74.20
2018-06-11T15:33:28.602Z,72.80
2018-06-11T15:35:58.350Z,72.80
2018-06-11T15:38:27.798Z,72.10
2018-06-11T15:40:57.304Z,72.00
2018-06-11T15:43:27.429Z,71.70
2018-06-11T15:45:56.900Z,71.70
2018-06-11T15:48:26.755Z,70.90
2018-06-11T15:50:56.571Z,70.00
2018-06-11T15:53:25.862Z,70.40
2018-06-11T15:55:55.434Z,71.40
2018-06-11T15:58:24.924Z,72.60
2018-06-11T16:00:54.209Z,73.60
2018-06-11T16:03:23.971Z,72.00
2018-06-11T16:05:53.350Z,71.30
2018-06-11T16:08:22.869Z,70.70
2018-06-11T16:10:52.394Z,70.70
2018-06-11T16:13:22.144Z,70.60
2018-06-11T16:15:51.923Z,65.70
2018-06-11T16:18:21.177Z,64.40
2018-06-11T16:20:51.308Z,65.80
2018-06-11T16:23:21.293Z,66.10
2018-06-11T16:25:52.158Z,67.70
2018-06-11T16:28:37.457Z,68.40
2018-06-11T16:31:07.477Z,68.70
2018-06-11T16:33:37.908Z,67.80
2018-06-11T16:36:08.538Z,67.80
2018-06-11T16:38:38.800Z,68.70
2018-06-11T16:41:08.171Z,68.80
2018-06-11T16:43:37.589Z,68.80
2018-06-11T16:46:07.188Z,66.90
2018-06-11T16:48:36.651Z,65.00
2018-06-11T16:51:06.483Z,63.60
2018-06-11T16:53:36.496Z,61.70
2018-06-11T16:56:06.013Z,62.20
2018-06-11T16:58:36.852Z,64.80
2018-06-11T17:01:06.561Z,64.80
2018-06-11T17:03:36.831Z,60.60
2018-06-11T17:06:06.538Z,60.60
2018-06-11T17:08:36.918Z,59.30
2018-06-11T17:11:06.480Z,59.60
2018-06-11T17:13:35.836Z,59.80
2018-06-11T17:16:05.834Z,59.50
2018-06-11T17:18:35.362Z,58.20
2018-06-11T17:21:04.804Z,57.40
2018-06-11T17:23:34.285Z,57.70
2018-06-11T17:26:04.544Z,58.50
2018-06-11T17:28:34.195Z,57.70
2018-06-11T17:31:03.584Z,57.10
2018-06-11T17:33:34.224Z,58.20
2018-06-11T17:36:03.848Z,58.20
2018-06-11T17:38:33.322Z,59.40
2018-06-11T17:41:02.929Z,60.20
2018-06-11T17:43:32.352Z,60.90
2018-06-11T17:46:02.095Z,62.70
2018-06-11T17:48:31.602Z,62.60
2018-06-11T17:51:01.249Z,61.80
2018-06-11T17:53:31.292Z,60.60
2018-06-11T17:56:00.567Z,60.50
2018-06-11T17:58:31.018Z,60.60
2018-06-11T18:01:00.620Z,48.10
2018-06-11T18:03:31.664Z,34.80
2018-06-11T18:06:01.779Z,28.10
2018-06-11T18:08:31.291Z,23.00
2018-06-11T18:11:00.803Z,27.30
2018-06-11T18:13:30.417Z,31.50
2018-06-11T18:16:00.006Z,36.20
2018-06-11T18:18:29.564Z,36.80
2018-06-11T18:20:58.766Z,33.90
2018-06-11T18:23:28.178Z,33.10
2018-06-11T18:25:59.208Z,37.00
2018-06-11T18:28:28.852Z,34.20
2018-06-11T18:30:59.105Z,31.50
2018-06-11T18:33:28.465Z,32.20
2018-06-11T18:35:57.988Z,32.30
2018-06-11T18:38:27.998Z,41.00
2018-06-11T18:40:57.868Z,41.00
2018-06-11T18:43:27.187Z,39.90
2018-06-11T18:45:56.598Z,41.10
2018-06-11T18:48:26.231Z,41.00
2018-06-11T18:50:55.820Z,44.00
2018-06-11T18:53:25.152Z,45.80
2018-06-11T18:55:55.087Z,47.50
2018-06-11T18:58:24.554Z,44.80
2018-06-11T19:00:54.342Z,43.10
2018-06-11T19:03:23.561Z,41.60
2018-06-11T19:05:53.123Z,43.50
2018-06-11T19:08:22.611Z,43.70
2018-06-11T19:10:52.018Z,45.00
2018-06-11T19:13:22.701Z,45.50
2018-06-11T19:15:52.547Z,43.20
2018-06-11T19:18:22.580Z,43.20
2018-06-11T19:20:51.841Z,42.50
2018-06-11T19:23:23.073Z,42.50
2018-06-11T19:25:52.927Z,42.50
2018-06-11T19:28:22.327Z,43.00
2018-06-11T19:30:52.188Z,40.40
2018-06-11T19:33:21.856Z,42.20
2018-06-11T19:35:51.448Z,44.80
2018-06-11T19:38:22.138Z,41.60
2018-06-11T19:40:51.651Z,41.60
2018-06-11T19:43:21.228Z,41.50
2018-06-11T19:45:51.137Z,41.30
2018-06-11T19:48:20.623Z,43.50
2018-06-11T19:50:49.995Z,43.00
2018-06-11T19:53:20.002Z,42.60
2018-06-11T19:55:49.517Z,44.10
2018-06-11T19:58:19.303Z,39.10
2018-06-11T20:00:49.187Z,37.50
2018-06-11T20:03:19.266Z,40.10
2018-06-11T20:05:48.518Z,40.70
2018-06-11T20:08:18.690Z,38.20
2018-06-11T20:10:48.873Z,39.10
2018-06-11T20:13:18.284Z,39.10
2018-06-11T20:15:48.959Z,34.80
2018-06-11T20:18:18.536Z,37.20
2018-06-11T20:20:48.115Z,35.20
2018-06-11T20:23:17.795Z,35.80
2018-06-11T20:25:47.362Z,34.70
2018-06-11T20:28:17.811Z,34.90
2018-06-11T20:30:47.579Z,37.20
2018-06-11T20:33:17.058Z,36.90
2018-06-11T20:35:46.564Z,37.50
2018-06-11T20:38:16.102Z,38.20
2018-06-11T20:40:45.436Z,36.70
2018-06-11T20:43:15.226Z,39.50
2018-06-11T20:45:44.932Z,39.10
2018-06-11T20:48:14.762Z,37.40
2018-06-11T20:50:44.428Z,38.00
2018-06-11T20:53:14.183Z,38.50
2018-06-11T20:55:43.912Z,40.60
2018-06-11T20:58:13.453Z,40.60
2018-06-11T21:00:43.857Z,41.10
2018-06-11T21:03:13.293Z,38.60
2018-06-11T21:05:42.709Z,41.40
2018-06-11T21:08:12.071Z,37.50
2018-06-11T21:10:41.589Z,41.20
2018-06-11T21:13:11.132Z,40.30
2018-06-11T21:15:40.536Z,38.10
2018-06-11T21:18:10.785Z,40.20
2018-06-11T21:20:41.907Z,40.80
2018-06-11T21:23:12.043Z,40.60
2018-06-11T21:25:41.624Z,40.60
2018-06-11T21:28:10.981Z,43.00
2018-06-11T21:30:40.827Z,39.60
2018-06-11T21:33:10.382Z,40.30
2018-06-11T21:35:40.285Z,38.60
2018-06-11T21:38:09.894Z,39.70
2018-06-11T21:40:39.590Z,40.40
2018-06-11T21:43:09.404Z,41.50
2018-06-11T21:45:39.625Z,42.20
2018-06-11T21:48:09.852Z,42.10
2018-06-11T21:50:39.577Z,41.50
2018-06-11T21:53:09.162Z,43.00
2018-06-11T21:55:38.459Z,41.10
2018-06-11T21:58:07.986Z,42.10
2018-06-11T22:00:38.558Z,42.10
2018-06-11T22:03:08.055Z,42.00
2018-06-11T22:05:38.406Z,42.50
2018-06-11T22:08:08.037Z,42.10
2018-06-11T22:10:37.553Z,42.00
2018-06-11T22:13:07.994Z,43.60
2018-06-11T22:15:37.864Z,44.30
2018-06-11T22:18:07.121Z,44.60
2018-06-11T22:20:36.471Z,48.20
2018-06-11T22:23:06.135Z,43.50
2018-06-11T22:25:36.169Z,44.20
2018-06-11T22:28:05.876Z,46.30
2018-06-11T22:30:36.399Z,45.20
2018-06-11T22:33:05.791Z,44.80
2018-06-11T22:35:35.326Z,44.80
2018-06-11T22:38:04.777Z,45.00
2018-06-11T22:40:34.485Z,46.30
2018-06-11T22:43:04.129Z,44.30
2018-06-11T22:45:33.556Z,45.10
2018-06-11T22:48:03.497Z,44.80
2018-06-11T22:50:33.265Z,47.20
2018-06-11T22:53:02.839Z,45.50
2018-06-11T22:55:33.971Z,48.00
2018-06-11T22:58:03.258Z,48.30
2018-06-11T23:00:32.771Z,47.20
2018-06-11T23:03:02.498Z,47.40
2018-06-11T23:05:31.743Z,46.90
2018-06-11T23:08:01.358Z,45.60
2018-06-11T23:10:31.263Z,45.40
2018-06-11T23:13:00.763Z,47.30
2018-06-11T23:15:30.102Z,47.80
2018-06-11T23:18:01.507Z,47.40
2018-06-11T23:20:31.770Z,47.40
2018-06-11T23:23:03.570Z,46.30
2018-06-11T23:25:35.316Z,46.70
2018-06-11T23:28:04.788Z,45.90
2018-06-11T23:30:34.344Z,46.40
2018-06-11T23:33:03.811Z,47.10
2018-06-11T23:35:35.592Z,47.20
2018-06-11T23:38:06.150Z,48.60
2018-06-11T23:40:35.803Z,46.40
2018-06-11T23:43:05.284Z,46.90
2018-06-11T23:45:34.692Z,47.50
2018-06-11T23:48:04.231Z,49.00
2018-06-11T23:50:33.590Z,47.60
2018-06-11T23:53:03.059Z,49.20
2018-06-11T23:55:32.633Z,48.60
2018-06-11T23:58:02.932Z,49.20
